Terminal Aerodrome Forecast
Issued by NWS Charleston, WV

Current Version | Previous Version | Text Only | Print | Product List | Glossary Off
Versions: 1 2 3 4 5 6 7 8 9 10 11 12 13 14 15 16 17 18 19 20 21 22

000
FTUS41 KRLX 260200 AAA
TAFBKW
TAF AMD
KBKW 260243Z 2603/2624 VRB04KT P6SM SCT025 OVC035
     FM260500 16007KT 4SM -RAPL BR BKN022
     FM260700 17005KT 3SM -RASNPL BR OVC010
     FM261000 17004KT 2SM -SNPL BR OVC008
     FM261200 VRB03KT 1SM -SN BR OVC003
     FM261400 21005KT 2SM -RASN BR OVC003=

USA.gov is the U.S. government's official web portal to all federal, state and local government web resources and services.